Time;durP1;ratioP1;P1;durP2;ratioP2;P2;SDS_P1;SDS_P2;PMS_P1;PMS_P2;Temp;Humidity;BMP_temperature;BMP_pressure;BME280_temperature;BME280_humidity;BME280_pressure;Samples;Min_cycle;Max_cycle;Signal;HPM_P1;HPM_P2
2022/05/12 00:02:18;;;;;;;;;;;;;;;10.66;74.96;99288.81;1663418;85;20203;-78
2022/05/12 00:04:49;;;;;;;;;;;;;;;10.63;74.13;99289.45;1643430;86;20159;-79
2022/05/12 00:07:19;;;;;;;;;;;;;;;10.64;73.48;99290.27;1694362;84;20122;-78
2022/05/12 00:09:51;;;;;;;;;;;;;;;10.63;74.17;99296.88;1627684;85;20106;-80
2022/05/12 00:12:18;;;;;;;;;;;;;;;10.61;74.37;99290.91;1634274;86;20158;-82
2022/05/12 00:14:50;;;;;;;;;;;;;;;10.58;72.85;99290.98;1698892;83;20438;-80
2022/05/12 00:17:18;;;;;;;;;;;;;;;10.56;73.64;99289.94;1701677;82;21155;-81
2022/05/12 00:19:50;;;;;;;;;;;;;;;10.54;74.05;99290.82;1651658;84;20128;-80
2022/05/12 00:22:20;;;;;;;;;;;;;;;10.49;73.97;99292.34;1665741;85;20140;-80
2022/05/12 00:24:46;;;;;;;;;;;;;;;10.44;74.13;99292.50;1661107;85;21198;-80
2022/05/12 00:27:15;;;;;;;;;;;;;;;10.40;74.42;99293.49;1673928;85;20781;-80
2022/05/12 00:29:50;;;;;;;;;;;;;;;10.35;74.50;99285.41;1644984;85;20591;-79
2022/05/12 00:32:21;;;;;;;;;;;;;;;10.30;74.83;99291.05;1667528;85;20125;-79
2022/05/12 00:34:50;;;;;;;;;;;;;;;10.25;75.12;99288.70;1656271;85;20125;-79
2022/05/12 00:37:18;;;;;;;;;;;;;;;10.22;75.26;99292.64;1629786;87;20155;-80
2022/05/12 00:39:48;;;;;;;;;;;;;;;10.21;75.39;99289.66;1619490;87;20112;-80
2022/05/12 00:42:18;;;;;;;;;;;;;;;10.21;75.68;99293.77;1628243;87;20596;-80
2022/05/12 00:44:46;;;;;;;;;;;;;;;10.21;75.75;99291.03;1633587;87;20106;-79
2022/05/12 00:47:19;;;;;;;;;;;;;;;10.20;75.69;99290.22;1627849;87;20108;-79
2022/05/12 00:49:49;;;;;;;;;;;;;;;10.21;76.04;99282.80;1631982;86;20914;-80
2022/05/12 00:52:30;;;;;;;;;;;;;;;10.21;75.90;99281.43;1649456;85;20095;-80
2022/05/12 00:55:16;;;;;;;;;;;;;;;10.21;76.09;99282.23;1660627;85;21272;-80
2022/05/12 00:57:51;;;;;;;;;;;;;;;10.23;76.40;99276.43;1646057;85;20483;-78
2022/05/12 01:00:18;;;;;;;;;;;;;;;10.23;76.50;99275.06;1658306;85;20096;-80
2022/05/12 01:02:53;;;;;;;;;;;;;;;10.22;76.33;99273.44;1659431;85;20655;-80
2022/05/12 01:05:27;;;;;;;;;;;;;;;10.21;76.31;99274.57;1633798;86;20084;-81
2022/05/12 01:07:58;;;;;;;;;;;;;;;10.18;76.46;99270.50;1622391;85;20123;-80
2022/05/12 01:10:26;;;;;;;;;;;;;;;10.15;76.50;99273.88;1653871;85;20130;-79
2022/05/12 01:13:08;;;;;;;;;;;;;;;10.10;76.64;99268.55;1682442;85;20439;-79
2022/05/12 01:15:28;;;;;;;;;;;;;;;10.08;76.60;99271.36;1690797;84;20150;-79
2022/05/12 01:18:04;;;;;;;;;;;;;;;10.05;76.76;99270.06;1697272;84;20182;-82
2022/05/12 01:20:33;;;;;;;;;;;;;;;10.01;76.50;99270.45;1700128;83;21165;-81
2022/05/12 01:23:22;;;;;;;;;;;;;;;9.99;76.65;99269.16;1700858;84;20118;-80
2022/05/12 01:25:56;;;;;;;;;;;;;;;9.94;76.59;99268.17;1664579;84;20436;-79
2022/05/12 01:28:30;;;;;;;;;;;;;;;9.87;77.32;99266.45;1695824;83;20241;-79
2022/05/12 01:30:56;;;;;;;;;;;;;;;9.81;77.38;99261.47;1696166;84;20195;-82
2022/05/12 01:33:27;;;;;;;;;;;;;;;9.77;77.59;99256.38;1667399;83;20221;-82
2022/05/12 01:35:55;;;;;;;;;;;;;;;9.76;77.69;99258.87;1699339;84;20133;-82
2022/05/12 01:38:26;;;;;;;;;;;;;;;9.71;77.85;99254.33;1701200;84;20120;-81
2022/05/12 01:40:56;;;;;;;;;;;;;;;9.69;78.08;99255.78;1660972;85;20601;-82
2022/05/12 01:43:24;;;;;;;;;;;;;;;9.67;78.02;99252.55;1669410;85;20132;-81
2022/05/12 01:45:53;;;;;;;;;;;;;;;9.65;78.21;99256.97;1667755;85;21138;-81
2022/05/12 01:48:26;;;;;;;;;;;;;;;9.64;78.62;99262.77;1666379;85;20085;-80
2022/05/12 01:50:56;;;;;;;;;;;;;;;9.62;78.90;99268.56;1674446;85;32530;-81
2022/05/12 01:53:22;;;;;;;;;;;;;;;9.59;78.85;99262.34;1664651;85;20076;-80
2022/05/12 01:55:53;;;;;;;;;;;;;;;9.56;79.04;99261.61;1629966;86;20643;-81
2022/05/12 01:58:20;;;;;;;;;;;;;;;9.53;78.81;99264.41;1655973;85;20832;-81
2022/05/12 02:00:55;;;;;;;;;;;;;;;9.51;78.79;99254.33;1641807;85;20155;-81
2022/05/12 02:03:20;;;;;;;;;;;;;;;9.50;79.19;99258.75;1673851;84;20124;-80
2022/05/12 02:05:46;;;;;;;;;;;;;;;9.47;79.27;99255.28;1674652;85;20445;-80
2022/05/12 02:08:16;;;;;;;;;;;;;;;9.47;79.37;99251.16;1660793;85;20090;-81
2022/05/12 02:10:47;;;;;;;;;;;;;;;9.45;79.15;99249.30;1658377;85;21747;-81
2022/05/12 02:13:17;;;;;;;;;;;;;;;9.45;79.16;99252.05;1636178;85;20158;-81
2022/05/12 02:15:44;;;;;;;;;;;;;;;9.46;79.35;99252.29;1647223;86;20175;-81
2022/05/12 02:18:10;;;;;;;;;;;;;;;9.47;79.53;99248.42;1628336;86;20135;-80
2022/05/12 02:20:39;;;;;;;;;;;;;;;9.49;79.92;99253.03;1666738;85;20561;-80
2022/05/12 02:23:16;;;;;;;;;;;;;;;9.52;79.47;99257.31;1671340;85;21648;-80
2022/05/12 02:25:43;;;;;;;;;;;;;;;9.59;78.92;99249.45;1658086;85;20524;-81
2022/05/12 02:28:19;;;;;;;;;;;;;;;9.67;78.86;99251.98;1678186;84;20087;-80
2022/05/12 02:30:50;;;;;;;;;;;;;;;9.74;79.26;99253.70;1667266;85;20120;-80
2022/05/12 02:33:14;;;;;;;;;;;;;;;9.79;79.12;99252.19;1669752;85;20120;-80
2022/05/12 02:35:40;;;;;;;;;;;;;;;9.83;79.43;99252.33;1672174;85;21116;-80
2022/05/12 02:38:08;;;;;;;;;;;;;;;9.87;79.53;99249.20;1669753;85;20092;-78
2022/05/12 02:40:35;;;;;;;;;;;;;;;9.92;79.21;99249.05;1661034;86;20186;-80
2022/05/12 02:43:02;;;;;;;;;;;;;;;9.96;78.69;99249.23;1648033;86;20704;-79
2022/05/12 02:45:29;;;;;;;;;;;;;;;9.99;78.45;99252.70;1642420;86;20164;-81
2022/05/12 02:47:56;;;;;;;;;;;;;;;10.06;77.13;99253.05;1688796;82;21805;-82
2022/05/12 02:50:22;;;;;;;;;;;;;;;10.20;75.82;99249.07;1663672;85;20100;-82
2022/05/12 02:52:49;;;;;;;;;;;;;;;10.36;73.79;99253.53;1634568;85;20184;-80
2022/05/12 02:55:15;;;;;;;;;;;;;;;10.53;70.92;99254.89;1653853;85;20180;-80
2022/05/12 02:57:42;;;;;;;;;;;;;;;10.72;69.09;99255.95;1634790;86;20146;-81
2022/05/12 03:00:11;;;;;;;;;;;;;;;10.88;67.79;99259.02;1600623;86;21118;-81
2022/05/12 03:02:37;;;;;;;;;;;;;;;11.01;68.25;99255.25;1608418;87;20161;-81
2022/05/12 03:05:04;;;;;;;;;;;;;;;11.10;68.90;99262.11;1614092;87;20148;-80
2022/05/12 03:07:31;;;;;;;;;;;;;;;11.13;69.04;99257.34;1634266;86;20150;-79
2022/05/12 03:09:57;;;;;;;;;;;;;;;11.14;69.91;99257.02;1607316;88;20207;-81
2022/05/12 03:12:23;;;;;;;;;;;;;;;11.13;70.03;99259.52;1611429;87;21890;-81
2022/05/12 03:14:50;;;;;;;;;;;;;;;11.12;69.85;99259.84;1617123;88;20432;-81
2022/05/12 03:17:17;;;;;;;;;;;;;;;11.12;70.48;99266.71;1617784;88;20125;-81
2022/05/12 03:19:44;;;;;;;;;;;;;;;11.12;70.91;99269.45;1616084;87;20096;-82
2022/05/12 03:22:10;;;;;;;;;;;;;;;11.13;70.40;99265.01;1631092;86;20098;-83
2022/05/12 03:24:38;;;;;;;;;;;;;;;11.17;71.34;99265.97;1565494;88;21110;-82
2022/05/12 03:27:04;;;;;;;;;;;;;;;11.19;71.81;99263.70;1640113;86;20165;-82
2022/05/12 03:29:31;;;;;;;;;;;;;;;11.24;72.02;99264.91;1630207;86;20158;-82
2022/05/12 03:31:57;;;;;;;;;;;;;;;11.28;72.33;99267.00;1626448;87;20107;-82
2022/05/12 03:34:24;;;;;;;;;;;;;;;11.29;72.20;99263.93;1636588;86;20130;-82
2022/05/12 03:36:51;;;;;;;;;;;;;;;11.32;72.29;99262.47;1627617;86;21082;-81
2022/05/12 03:39:17;;;;;;;;;;;;;;;11.33;72.33;99260.77;1626598;87;20451;-81
2022/05/12 03:41:44;;;;;;;;;;;;;;;11.35;71.55;99263.19;1634746;86;20106;-81
2022/05/12 03:46:55;;;;;;;;;;;;;;;11.40;69.27;99265.20;1634994;85;20502;-83
2022/05/12 03:49:21;;;;;;;;;;;;;;;11.46;69.07;99261.70;1653095;85;22203;-83
2022/05/12 03:51:47;;;;;;;;;;;;;;;11.46;70.89;99268.58;1611440;87;20132;-83
2022/05/12 03:54:13;;;;;;;;;;;;;;;11.43;71.49;99263.17;1641311;86;20170;-83
2022/05/12 03:56:43;;;;;;;;;;;;;;;11.43;71.24;99262.36;1640620;85;20143;-81
2022/05/12 03:59:09;;;;;;;;;;;;;;;11.46;70.28;99265.83;1649376;86;20090;-83
2022/05/12 04:01:35;;;;;;;;;;;;;;;11.53;66.67;99261.44;1654531;86;21968;-83
2022/05/12 04:04:02;;;;;;;;;;;;;;;11.68;64.73;99264.19;1625586;87;20173;-83
2022/05/12 04:06:28;;;;;;;;;;;;;;;11.84;62.92;99267.22;1619090;86;20156;-82
2022/05/12 04:08:55;;;;;;;;;;;;;;;12.03;61.87;99264.06;1624553;86;20134;-82
2022/05/12 04:11:21;;;;;;;;;;;;;;;12.20;60.62;99258.43;1630630;86;20464;-82
2022/05/12 04:13:48;;;;;;;;;;;;;;;12.39;58.40;99268.42;1631743;86;21137;-81
2022/05/12 04:16:15;;;;;;;;;;;;;;;12.61;57.90;99266.49;1637500;86;20233;-83
2022/05/12 04:18:42;;;;;;;;;;;;;;;12.77;56.72;99265.52;1629964;87;20132;-83
2022/05/12 04:21:08;;;;;;;;;;;;;;;12.97;55.43;99266.65;1622953;87;20609;-78
2022/05/12 04:23:35;;;;;;;;;;;;;;;13.17;54.77;99249.30;1622238;87;20209;-78
2022/05/12 04:26:01;;;;;;;;;;;;;;;13.36;54.07;99249.33;1626035;87;21201;-76
2022/05/12 04:28:27;;;;;;;;;;;;;;;13.54;52.86;99253.50;1627238;87;20190;-79
2022/05/12 04:30:53;;;;;;;;;;;;;;;13.73;51.66;99255.71;1628461;86;20147;-70
2022/05/12 04:36:05;;;;;;;;;;;;;;;14.07;51.57;99249.72;1629055;87;20130;-75
2022/05/12 04:38:32;;;;;;;;;;;;;;;14.28;50.66;99246.82;1662640;84;21138;-72
2022/05/12 04:40:58;;;;;;;;;;;;;;;14.43;49.81;99243.38;1667265;84;20096;-73
2022/05/12 04:43:27;;;;;;;;;;;;;;;14.61;49.22;99252.17;1663796;84;20523;-80
2022/05/12 04:45:53;;;;;;;;;;;;;;;14.78;48.58;99242.80;1661187;84;21016;-81
2022/05/12 04:48:20;;;;;;;;;;;;;;;14.96;48.55;99237.20;1663227;84;20136;-78
2022/05/12 04:50:46;;;;;;;;;;;;;;;15.11;47.43;99239.17;1662685;84;21116;-79
2022/05/12 04:53:13;;;;;;;;;;;;;;;15.32;46.47;99241.72;1643824;84;20261;-70
2022/05/12 04:55:40;;;;;;;;;;;;;;;15.52;45.96;99238.48;1662832;84;20148;-75
2022/05/12 04:58:06;;;;;;;;;;;;;;;15.70;44.96;99236.98;1660379;84;20967;-74
2022/05/12 05:00:37;;;;;;;;;;;;;;;15.91;43.60;99222.87;1662617;84;20163;-77
2022/05/12 05:03:04;;;;;;;;;;;;;;;16.13;43.92;99217.26;1666638;84;21817;-72
2022/05/12 05:05:31;;;;;;;;;;;;;;;16.32;43.99;99221.42;1660162;84;20573;-73
2022/05/12 05:07:58;;;;;;;;;;;;;;;16.52;42.97;99218.11;1661440;84;20136;-83
2022/05/12 05:10:24;;;;;;;;;;;;;;;16.71;43.19;99218.73;1663415;84;20618;-74
2022/05/12 05:12:52;;;;;;;;;;;;;;;16.90;42.33;99213.75;1661951;84;20111;-76
2022/05/12 05:15:19;;;;;;;;;;;;;;;17.08;41.13;99212.12;1661307;84;21139;-78
2022/05/12 05:17:45;;;;;;;;;;;;;;;17.26;41.41;99211.88;1663109;84;20443;-78
2022/05/12 05:20:17;;;;;;;;;;;;;;;17.46;39.98;99209.83;1657989;84;20235;-73
2022/05/12 05:22:44;;;;;;;;;;;;;;;17.65;40.79;99200.64;1664022;84;20124;-77
2022/05/12 05:25:10;;;;;;;;;;;;;;;17.89;39.31;99203.65;1663687;84;20100;-83
2022/05/12 05:27:37;;;;;;;;;;;;;;;18.11;40.06;99206.94;1663438;85;21792;-80
2022/05/12 05:30:05;;;;;;;;;;;;;;;18.34;39.45;99205.49;1657992;84;20130;-75
2022/05/12 05:32:32;;;;;;;;;;;;;;;18.59;39.45;99202.43;1663547;84;20144;-75
2022/05/12 05:34:58;;;;;;;;;;;;;;;18.86;38.62;99197.64;1662997;84;20128;-72
2022/05/12 05:37:25;;;;;;;;;;;;;;;19.15;38.04;99193.16;1661854;85;20143;-81
2022/05/12 05:39:51;;;;;;;;;;;;;;;19.38;37.06;99192.41;1660097;84;21906;-75
2022/05/12 05:42:19;;;;;;;;;;;;;;;19.55;36.91;99190.21;1658971;84;20089;-72
2022/05/12 05:44:46;;;;;;;;;;;;;;;19.66;36.66;99188.30;1662720;84;20222;-79
2022/05/12 05:47:15;;;;;;;;;;;;;;;19.76;36.46;99184.20;1659204;85;20522;-79
2022/05/12 05:49:42;;;;;;;;;;;;;;;19.89;37.26;99189.47;1660934;85;20104;-72
2022/05/12 05:54:54;;;;;;;;;;;;;;;20.09;35.64;99178.28;1662450;85;20312;-71
2022/05/12 05:57:24;;;;;;;;;;;;;;;20.15;36.42;99180.91;1659985;85;20175;-77
2022/05/12 05:59:55;;;;;;;;;;;;;;;20.17;35.96;99172.16;1627565;85;20122;-77
2022/05/12 06:02:22;;;;;;;;;;;;;;;20.14;35.92;99175.12;1656835;85;20139;-77
2022/05/12 06:04:49;;;;;;;;;;;;;;;20.11;35.71;99172.52;1655010;86;21149;-78
2022/05/12 06:07:16;;;;;;;;;;;;;;;20.17;36.57;99173.55;1655108;85;20144;-81
2022/05/12 06:09:42;;;;;;;;;;;;;;;20.27;36.12;99165.81;1652437;86;20099;-73
2022/05/12 06:12:09;;;;;;;;;;;;;;;20.42;36.11;99170.31;1655763;85;20556;-76
2022/05/12 06:14:38;;;;;;;;;;;;;;;20.54;35.71;99164.40;1628617;85;20102;-73
2022/05/12 06:17:05;;;;;;;;;;;;;;;20.65;35.49;99161.06;1654600;85;21177;-76
2022/05/12 06:19:32;;;;;;;;;;;;;;;20.75;35.49;99156.13;1629650;86;20147;-74
2022/05/12 06:22:00;;;;;;;;;;;;;;;20.87;35.99;99154.14;1667035;84;20100;-74
2022/05/12 06:24:26;;;;;;;;;;;;;;;21.01;35.82;99149.99;1643466;85;20096;-72
2022/05/12 06:26:53;;;;;;;;;;;;;;;21.16;35.92;99152.22;1668912;85;20124;-78
2022/05/12 06:29:20;;;;;;;;;;;;;;;21.29;35.75;99147.28;1668777;85;21164;-76
2022/05/12 06:31:47;;;;;;;;;;;;;;;21.43;36.25;99143.69;1667856;85;20481;-76
2022/05/12 06:34:15;;;;;;;;;;;;;;;21.59;36.37;99133.52;1668672;85;20126;-76
2022/05/12 06:36:43;;;;;;;;;;;;;;;21.77;35.44;99134.91;1671435;84;20169;-80
2022/05/12 06:39:10;;;;;;;;;;;;;;;21.89;35.26;99136.69;1635758;86;20156;-77
2022/05/12 06:41:36;;;;;;;;;;;;;;;22.00;35.15;99136.64;1654261;85;21225;-76
2022/05/12 06:44:04;;;;;;;;;;;;;;;22.09;35.30;99134.26;1644776;86;20438;-76
2022/05/12 06:46:32;;;;;;;;;;;;;;;22.23;35.58;99141.81;1634429;87;20431;-74
2022/05/12 06:49:02;;;;;;;;;;;;;;;22.38;34.77;99134.98;1633793;85;20670;-76
2022/05/12 06:51:27;;;;;;;;;;;;;;;22.53;34.92;99135.09;1634046;88;20180;-75
2022/05/12 06:53:55;;;;;;;;;;;;;;;22.71;34.98;99137.81;1632984;88;21140;-75
2022/05/12 06:56:22;;;;;;;;;;;;;;;22.87;33.63;99135.37;1633988;88;20117;-75
2022/05/12 06:58:48;;;;;;;;;;;;;;;22.98;33.31;99132.52;1634153;88;20475;-75
2022/05/12 07:01:15;;;;;;;;;;;;;;;23.08;33.14;99126.66;1634069;85;20348;-75
2022/05/12 07:03:42;;;;;;;;;;;;;;;23.15;33.05;99126.58;1633911;88;20092;-75
2022/05/12 07:06:08;;;;;;;;;;;;;;;23.25;35.33;99131.31;1633896;88;21134;-77
2022/05/12 07:08:41;;;;;;;;;;;;;;;23.41;33.96;99130.19;1634189;85;20164;-78
2022/05/12 07:11:10;;;;;;;;;;;;;;;23.52;33.99;99128.11;1633992;88;20092;-73
2022/05/12 07:13:36;;;;;;;;;;;;;;;23.61;34.31;99122.86;1633801;88;20632;-74
2022/05/12 07:16:03;;;;;;;;;;;;;;;23.69;32.69;99123.56;1634265;85;20479;-74
2022/05/12 07:18:30;;;;;;;;;;;;;;;23.75;32.76;99111.30;1631624;86;22655;-77
2022/05/12 07:28:56;;;;;;;;;;;;;;;24.21;33.48;99101.81;1626986;88;20096;-76
2022/05/12 07:31:23;;;;;;;;;;;;;;;24.33;32.96;99106.08;1633924;86;21152;-73
2022/05/12 07:33:50;;;;;;;;;;;;;;;24.43;33.06;99117.79;1633909;85;20084;-76
2022/05/12 07:36:19;;;;;;;;;;;;;;;24.50;32.11;99107.88;1633864;88;20128;-77
2022/05/12 07:38:47;;;;;;;;;;;;;;;24.54;32.07;99092.41;1633106;87;20096;-82
2022/05/12 07:41:13;;;;;;;;;;;;;;;24.59;32.86;99096.95;1633801;88;20132;-89
2022/05/12 07:43:40;;;;;;;;;;;;;;;24.69;33.36;99095.21;1633890;88;21144;-77
2022/05/12 07:46:06;;;;;;;;;;;;;;;24.76;32.51;99097.12;1633710;88;20101;-74
2022/05/12 07:48:34;;;;;;;;;;;;;;;24.86;34.17;99095.55;1634111;88;20092;-74
2022/05/12 07:51:00;;;;;;;;;;;;;;;25.04;32.88;99086.10;1611698;88;20136;-81
2022/05/12 07:53:27;;;;;;;;;;;;;;;25.19;32.68;99093.89;1633938;88;20104;-72
2022/05/12 07:55:53;;;;;;;;;;;;;;;25.28;31.92;99087.73;1633858;85;21132;-73
2022/05/12 07:58:20;;;;;;;;;;;;;;;25.37;32.13;99086.58;1633646;88;20132;-73
2022/05/12 08:00:47;;;;;;;;;;;;;;;25.51;32.44;99084.91;1633891;88;20104;-78
2022/05/12 08:03:13;;;;;;;;;;;;;;;25.78;32.02;99095.33;1620295;88;20104;-74
2022/05/12 08:05:39;;;;;;;;;;;;;;;26.08;31.11;99083.09;1633929;88;20129;-73
2022/05/12 08:08:07;;;;;;;;;;;;;;;26.35;31.60;99082.99;1633882;88;21983;-74
2022/05/12 08:10:35;;;;;;;;;;;;;;;26.65;31.56;99075.69;1633649;85;20147;-77
2022/05/12 08:13:01;;;;;;;;;;;;;;;26.93;30.81;99075.66;1633958;88;20092;-82
2022/05/12 08:15:28;;;;;;;;;;;;;;;27.16;29.98;99085.38;1633745;88;20116;-82
2022/05/12 08:17:55;;;;;;;;;;;;;;;27.23;30.10;99075.35;1630676;88;20153;-85
2022/05/12 08:20:21;;;;;;;;;;;;;;;27.32;30.21;99074.73;1626507;86;21128;-82
2022/05/12 08:22:48;;;;;;;;;;;;;;;27.43;30.20;99073.06;1632947;86;20137;-80
2022/05/12 08:25:15;;;;;;;;;;;;;;;27.52;29.97;99076.06;1634479;86;20136;-77
2022/05/12 08:27:41;;;;;;;;;;;;;;;27.67;29.38;99075.90;1634314;87;20447;-76
2022/05/12 08:30:10;;;;;;;;;;;;;;;27.75;29.78;99076.48;1634259;88;20113;-79
2022/05/12 08:32:37;;;;;;;;;;;;;;;27.79;29.88;99072.95;1634603;88;21179;-80
2022/05/12 08:35:04;;;;;;;;;;;;;;;27.99;29.63;99072.81;1634275;87;20092;-76
2022/05/12 08:37:31;;;;;;;;;;;;;;;28.16;29.14;99065.27;1634272;88;20096;-80
2022/05/12 08:39:57;;;;;;;;;;;;;;;28.23;28.17;99064.31;1667676;84;20175;-81
2022/05/12 08:42:33;;;;;;;;;;;;;;;28.19;28.87;99065.79;1661087;83;20156;-78
2022/05/12 08:45:00;;;;;;;;;;;;;;;28.30;28.73;99061.91;1669124;83;21149;-81
2022/05/12 08:47:29;;;;;;;;;;;;;;;28.34;28.46;99049.23;1655414;85;20135;-76
2022/05/12 08:49:56;;;;;;;;;;;;;;;28.30;28.23;99041.53;1667109;84;20169;-77
2022/05/12 08:52:25;;;;;;;;;;;;;;;28.40;29.35;99043.83;1680048;83;20529;-77
2022/05/12 08:55:13;;;;;;;;;;;;;;;28.72;28.36;99058.41;1679413;84;20116;-80
2022/05/12 08:57:44;;;;;;;;;;;;;;;28.91;27.75;99044.69;1662860;83;21321;-77
2022/05/12 09:00:12;;;;;;;;;;;;;;;29.03;27.92;99041.07;1673348;85;20100;-76
2022/05/12 09:02:59;;;;;;;;;;;;;;;29.15;27.71;99036.66;1666136;83;20120;-77
2022/05/12 09:05:31;;;;;;;;;;;;;;;29.17;27.32;99038.41;1663502;85;20147;-80
2022/05/12 09:08:21;;;;;;;;;;;;;;;29.16;27.09;99039.03;1669512;83;20112;-78
2022/05/12 09:10:57;;;;;;;;;;;;;;;29.24;27.33;99046.66;1628933;83;21791;-80
2022/05/12 09:13:26;;;;;;;;;;;;;;;29.30;26.70;99031.33;1666368;83;20120;-83
2022/05/12 09:16:12;;;;;;;;;;;;;;;29.27;27.47;99033.02;1664005;83;20113;-84
2022/05/12 09:18:39;;;;;;;;;;;;;;;29.44;27.36;99019.56;1654272;83;20627;-89
2022/05/12 09:21:08;;;;;;;;;;;;;;;29.67;26.61;99010.64;1660063;84;20119;-85
2022/05/12 09:23:35;;;;;;;;;;;;;;;29.82;26.92;99009.52;1677578;83;21126;-81
2022/05/12 09:26:22;;;;;;;;;;;;;;;30.01;26.41;99014.09;1665719;83;20129;-74
2022/05/12 09:28:48;;;;;;;;;;;;;;;30.09;26.13;99017.43;1683826;84;20201;-73
2022/05/12 09:31:18;;;;;;;;;;;;;;;30.12;26.38;99022.95;1663799;83;20147;-80
2022/05/12 09:33:49;;;;;;;;;;;;;;;30.06;25.50;99004.20;1655871;84;20160;-72
2022/05/12 09:36:27;;;;;;;;;;;;;;;30.05;26.19;99001.99;1667983;84;21157;-75
2022/05/12 09:38:57;;;;;;;;;;;;;;;30.20;26.09;99007.29;1669703;83;20474;-75
2022/05/12 09:41:39;;;;;;;;;;;;;;;30.34;25.51;99000.30;1678090;83;20123;-76
2022/05/12 09:44:21;;;;;;;;;;;;;;;30.42;26.03;98991.70;1674199;83;20132;-75
2022/05/12 09:46:56;;;;;;;;;;;;;;;30.57;25.62;98989.72;1671441;83;20140;-76
2022/05/12 09:49:23;;;;;;;;;;;;;;;30.58;25.19;98992.12;1682725;84;21557;-68
2022/05/12 09:51:50;;;;;;;;;;;;;;;30.31;25.44;98996.19;1683973;84;20147;-69
2022/05/12 09:54:26;;;;;;;;;;;;;;;30.11;25.33;98992.28;1663483;84;20442;-78
2022/05/12 09:56:56;;;;;;;;;;;;;;;30.14;26.30;98979.41;1672288;83;20645;-71
2022/05/12 09:59:24;;;;;;;;;;;;;;;30.39;25.01;98989.79;1663017;83;20510;-71
2022/05/12 10:01:57;;;;;;;;;;;;;;;30.36;24.99;98985.68;1663044;84;21139;-74
2022/05/12 10:10:18;;;;;;;;;;;;;;;30.12;25.32;98967.77;1691183;83;20234;-75
2022/05/12 10:12:51;;;;;;;;;;;;;;;29.98;25.69;98971.75;1676213;83;20582;-78
2022/05/12 10:15:21;;;;;;;;;;;;;;;29.99;26.27;98969.09;1677324;84;21096;-77
2022/05/12 10:17:51;;;;;;;;;;;;;;;30.06;25.56;98959.70;1674160;85;20124;-77
2022/05/12 10:20:21;;;;;;;;;;;;;;;30.19;25.67;98951.93;1676375;83;20154;-77
2022/05/12 10:23:00;;;;;;;;;;;;;;;30.42;25.99;98943.55;1662085;83;20103;-80
2022/05/12 10:25:56;;;;;;;;;;;;;;;30.61;24.40;98943.04;1660446;84;20124;-81
2022/05/12 10:28:19;;;;;;;;;;;;;;;30.40;25.05;98944.65;1679176;83;21786;-87
2022/05/12 10:30:49;;;;;;;;;;;;;;;30.33;24.87;98955.46;1661750;84;20119;-75
2022/05/12 10:33:23;;;;;;;;;;;;;;;30.22;24.74;98949.59;1658095;83;20150;-74
2022/05/12 10:35:59;;;;;;;;;;;;;;;30.18;25.48;98940.44;1668504;85;20625;-72
2022/05/12 10:38:47;;;;;;;;;;;;;;;30.32;25.46;98932.65;1664933;83;20163;-74
2022/05/12 10:41:29;;;;;;;;;;;;;;;30.48;24.96;98929.58;1684079;84;21748;-72
2022/05/12 10:44:18;;;;;;;;;;;;;;;30.56;24.54;98926.63;1679373;84;20120;-70
2022/05/12 10:47:03;;;;;;;;;;;;;;;30.53;24.77;98930.39;1664741;84;20117;-70
2022/05/12 10:49:50;;;;;;;;;;;;;;;30.58;25.04;98918.48;1673325;83;20099;-73
2022/05/12 10:52:30;;;;;;;;;;;;;;;30.76;24.58;98907.81;1665274;83;20442;-75
2022/05/12 10:55:07;;;;;;;;;;;;;;;30.84;24.34;98911.92;1660096;84;20700;-77
2022/05/12 10:57:49;;;;;;;;;;;;;;;30.80;24.45;98910.66;1677637;84;20099;-88
2022/05/12 11:00:32;;;;;;;;;;;;;;;30.74;23.68;98908.27;1677662;83;20460;-74
2022/05/12 11:03:06;;;;;;;;;;;;;;;30.63;24.76;98900.06;1669491;83;20468;-74
2022/05/12 11:05:37;;;;;;;;;;;;;;;30.67;24.63;98901.48;1666417;83;20115;-77
2022/05/12 11:08:12;;;;;;;;;;;;;;;30.65;24.37;98905.41;1662874;83;22009;-77
2022/05/12 11:10:54;;;;;;;;;;;;;;;30.63;23.65;98888.09;1667523;82;20104;-82
2022/05/12 11:13:27;;;;;;;;;;;;;;;30.57;24.00;98870.17;1670515;84;20120;-73
2022/05/12 11:15:59;;;;;;;;;;;;;;;30.65;23.53;98894.71;1664989;84;20146;-74
2022/05/12 11:18:48;;;;;;;;;;;;;;;30.70;24.16;98872.85;1681715;83;20128;-73
2022/05/12 11:21:18;;;;;;;;;;;;;;;30.92;24.49;98879.20;1657452;85;21158;-75
2022/05/12 11:24:06;;;;;;;;;;;;;;;30.99;23.68;98861.10;1670903;83;20096;-72
2022/05/12 11:26:57;;;;;;;;;;;;;;;31.05;23.54;98853.55;1664509;84;20436;-73
2022/05/12 11:29:48;;;;;;;;;;;;;;;31.13;23.70;98873.27;1665237;83;20152;-72
2022/05/12 11:32:26;;;;;;;;;;;;;;;31.24;23.63;98867.89;1658257;84;20174;-75
2022/05/12 11:34:55;;;;;;;;;;;;;;;31.15;22.90;98863.66;1659442;83;21676;-72
2022/05/12 11:37:37;;;;;;;;;;;;;;;30.99;23.98;98856.85;1670594;84;20500;-75
2022/05/12 11:40:07;;;;;;;;;;;;;;;31.10;23.56;98852.30;1681183;83;20121;-80
2022/05/12 11:45:44;;;;;;;;;;;;;;;31.37;23.06;98862.85;1676778;83;20438;-73
2022/05/12 11:48:17;;;;;;;;;;;;;;;31.45;23.75;98832.12;1672330;83;21238;-82
2022/05/12 11:50:59;;;;;;;;;;;;;;;31.52;22.50;98819.03;1690696;83;20139;-76
2022/05/12 11:53:29;;;;;;;;;;;;;;;31.48;23.50;98823.45;1683121;83;20185;-74
2022/05/12 11:56:12;;;;;;;;;;;;;;;31.60;23.08;98819.49;1687775;84;20152;-79
2022/05/12 11:58:47;;;;;;;;;;;;;;;31.71;22.98;98819.81;1672500;83;20164;-77
2022/05/12 12:01:24;;;;;;;;;;;;;;;31.86;22.94;98816.43;1690777;83;21080;-86
2022/05/12 12:03:53;;;;;;;;;;;;;;;31.98;22.71;98816.86;1669325;83;20454;-74
2022/05/12 12:06:45;;;;;;;;;;;;;;;32.01;22.49;98806.61;1664854;83;20332;-77
2022/05/12 12:09:38;;;;;;;;;;;;;;;31.87;22.42;98798.77;1666787;83;20624;-78
2022/05/12 12:12:09;;;;;;;;;;;;;;;31.52;23.25;98806.27;1683766;83;20462;-75
2022/05/12 12:14:51;;;;;;;;;;;;;;;31.46;22.68;98801.87;1660163;83;21954;-78
2022/05/12 12:17:27;;;;;;;;;;;;;;;31.49;22.65;98806.59;1685543;82;20099;-76
2022/05/12 12:19:56;;;;;;;;;;;;;;;31.46;23.05;98782.64;1672407;83;20092;-76
2022/05/12 12:22:29;;;;;;;;;;;;;;;31.56;22.81;98772.06;1683594;84;20151;-72
2022/05/12 12:25:34;;;;;;;;;;;;;;;31.59;23.10;98787.50;1708468;82;20120;-73
2022/05/12 12:28:16;;;;;;;;;;;;;;;31.66;22.77;98781.50;1597700;87;21179;-75
2022/05/12 12:30:57;;;;;;;;;;;;;;;31.74;22.82;98781.34;1602311;87;20472;-73
2022/05/12 12:33:31;;;;;;;;;;;;;;;31.62;22.69;98767.33;1636634;84;20119;-72
2022/05/12 12:36:08;;;;;;;;;;;;;;;31.53;22.75;98775.22;1663348;83;20803;-71
2022/05/12 12:38:51;;;;;;;;;;;;;;;31.59;22.58;98786.09;1661980;85;20147;-71
2022/05/12 12:41:20;;;;;;;;;;;;;;;31.68;21.91;98769.06;1672106;83;21231;-73
2022/05/12 12:43:52;;;;;;;;;;;;;;;31.85;22.27;98763.78;1672759;85;20088;-76
2022/05/12 12:46:30;;;;;;;;;;;;;;;31.96;22.64;98758.37;1670767;83;20087;-73
2022/05/12 12:49:09;;;;;;;;;;;;;;;32.06;22.21;98743.50;1657344;84;20739;-72
2022/05/12 12:51:29;;;;;;;;;;;;;;;32.00;22.40;98746.21;1658477;84;20439;-74
2022/05/12 12:56:42;;;;;;;;;;;;;;;31.64;22.05;98744.94;1671603;84;20119;-84
2022/05/12 12:59:27;;;;;;;;;;;;;;;31.55;22.47;98740.71;1662394;84;20477;-84
2022/05/12 13:02:00;;;;;;;;;;;;;;;31.54;22.87;98735.67;1675959;83;20137;-80
2022/05/12 13:04:29;;;;;;;;;;;;;;;31.58;22.19;98735.50;1672264;84;20152;-78
2022/05/12 13:06:57;;;;;;;;;;;;;;;31.60;21.98;98740.06;1672363;84;21244;-81
2022/05/12 13:09:27;;;;;;;;;;;;;;;31.62;22.57;98739.74;1658364;83;20156;-83
2022/05/12 13:12:14;;;;;;;;;;;;;;;31.48;22.51;98725.60;1668299;84;20127;-78
2022/05/12 13:14:43;;;;;;;;;;;;;;;31.31;22.87;98724.39;1674992;83;20185;-76
2022/05/12 13:17:21;;;;;;;;;;;;;;;31.21;22.91;98718.58;1666651;83;20177;-76
2022/05/12 13:19:48;;;;;;;;;;;;;;;31.08;23.18;98729.31;1661912;84;21136;-77
2022/05/12 13:22:30;;;;;;;;;;;;;;;30.89;23.09;98718.63;1667641;83;20116;-74
2022/05/12 13:24:56;;;;;;;;;;;;;;;30.87;23.39;98714.84;1694317;82;20155;-73
2022/05/12 13:27:26;;;;;;;;;;;;;;;30.87;23.34;98729.64;1684106;85;20418;-76
2022/05/12 13:29:53;;;;;;;;;;;;;;;30.81;23.35;98718.78;1668967;83;20187;-80
2022/05/12 13:32:37;;;;;;;;;;;;;;;30.83;23.40;98707.77;1680328;83;21123;-81
2022/05/12 13:35:17;;;;;;;;;;;;;;;31.12;22.87;98710.09;1663673;83;20427;-82